createdAt,value
2022-11-15T00:01:58.852Z,30.77
2022-11-15T00:04:44.591Z,36.45
2022-11-15T00:07:54.047Z,38.78
2022-11-15T00:10:36.624Z,31.45
2022-11-15T00:13:22.065Z,37.78
2022-11-15T00:16:09.859Z,37.00
2022-11-15T00:18:55.856Z,30.10
2022-11-15T00:21:41.524Z,30.55
2022-11-15T00:24:27.132Z,35.47
2022-11-15T00:27:12.667Z,32.80
2022-11-15T00:29:58.479Z,32.72
2022-11-15T00:32:44.398Z,36.40
2022-11-15T00:35:39.421Z,29.98
2022-11-15T00:38:24.839Z,28.45
2022-11-15T00:41:10.723Z,25.75
2022-11-15T00:43:56.358Z,28.92
2022-11-15T00:46:41.837Z,27.05
2022-11-15T00:49:27.775Z,27.90
2022-11-15T00:52:13.760Z,27.25
2022-11-15T00:54:59.424Z,31.38
2022-11-15T00:57:47.070Z,26.08
2022-11-15T01:00:32.676Z,27.30
2022-11-15T01:03:18.136Z,26.55
2022-11-15T01:06:05.152Z,26.67
2022-11-15T01:08:50.974Z,26.65
2022-11-15T01:11:36.744Z,20.30
2022-11-15T01:14:25.381Z,23.08
2022-11-15T01:17:11.539Z,25.25
2022-11-15T01:19:57.372Z,21.77
2022-11-15T01:22:43.029Z,23.88
2022-11-15T01:25:29.064Z,23.60
2022-11-15T01:28:14.654Z,24.17
2022-11-15T01:31:03.638Z,27.88
2022-11-15T01:33:50.127Z,22.50
2022-11-15T01:36:35.919Z,24.35
2022-11-15T01:39:21.436Z,24.13
2022-11-15T01:42:06.910Z,24.17
2022-11-15T01:44:55.784Z,22.77
2022-11-15T01:47:52.540Z,22.48
2022-11-15T01:50:38.296Z,22.55
2022-11-15T01:53:26.865Z,23.75
2022-11-15T01:56:23.992Z,23.40
2022-11-15T01:59:11.504Z,21.90
2022-11-15T02:01:57.802Z,20.77
2022-11-15T02:04:49.005Z,21.90
2022-11-15T02:07:37.037Z,23.15
2022-11-15T02:10:25.944Z,25.73
2022-11-15T02:13:12.048Z,21.17
2022-11-15T02:16:44.508Z,25.08
2022-11-15T02:19:32.901Z,21.85
2022-11-15T02:22:46.543Z,20.30
2022-11-15T02:26:35.971Z,21.08
2022-11-15T02:29:54.832Z,21.15
2022-11-15T02:32:53.305Z,20.83
2022-11-15T02:35:47.126Z,23.95
2022-11-15T02:39:08.828Z,24.40
2022-11-15T02:42:50.999Z,21.27
2022-11-15T02:46:21.006Z,20.52
2022-11-15T02:49:06.859Z,23.48
2022-11-15T02:51:55.884Z,22.98
2022-11-15T02:54:41.548Z,22.35
2022-11-15T02:58:05.413Z,22.83
2022-11-15T03:01:34.990Z,23.17
2022-11-15T03:04:48.463Z,24.30
2022-11-15T03:08:03.538Z,22.38
2022-11-15T03:11:19.395Z,23.58
2022-11-15T03:14:40.651Z,25.02
2022-11-15T03:17:42.143Z,22.42
2022-11-15T03:20:31.299Z,24.38
2022-11-15T03:23:18.666Z,23.13
2022-11-15T03:26:13.066Z,22.77
2022-11-15T03:29:12.135Z,21.77
2022-11-15T03:32:26.776Z,24.58
2022-11-15T03:35:34.638Z,23.15
2022-11-15T03:38:31.497Z,23.53
2022-11-15T03:41:40.592Z,22.08
2022-11-15T03:45:02.539Z,23.48
2022-11-15T03:48:06.942Z,23.10
2022-11-15T03:50:54.420Z,22.52
2022-11-15T03:53:42.109Z,23.05
2022-11-15T03:56:27.644Z,23.30
2022-11-15T03:59:13.269Z,23.83
2022-11-15T04:01:58.798Z,25.80
2022-11-15T04:04:44.648Z,23.38
2022-11-15T04:07:30.442Z,24.92
2022-11-15T04:10:17.336Z,24.75
2022-11-15T04:13:04.679Z,29.15
2022-11-15T04:15:50.222Z,31.65
2022-11-15T04:18:36.072Z,24.98
2022-11-15T04:21:40.197Z,24.77
2022-11-15T04:24:25.985Z,26.25
2022-11-15T04:27:13.948Z,25.27
2022-11-15T04:29:59.739Z,26.25
2022-11-15T04:32:45.416Z,27.00
2022-11-15T04:35:31.575Z,26.63
2022-11-15T04:38:17.132Z,29.42
2022-11-15T04:41:03.694Z,29.35
2022-11-15T04:43:49.616Z,29.20
2022-11-15T04:46:35.218Z,30.55
2022-11-15T04:49:20.908Z,28.58
2022-11-15T04:52:06.699Z,25.95
2022-11-15T04:54:52.455Z,26.45
2022-11-15T04:57:39.108Z,30.10
2022-11-15T05:00:24.739Z,31.05
2022-11-15T05:03:29.979Z,27.88
2022-11-15T05:06:18.536Z,29.73
2022-11-15T05:09:05.533Z,28.55
2022-11-15T05:11:51.626Z,28.38
2022-11-15T05:14:37.239Z,33.78
2022-11-15T05:17:23.127Z,26.48
2022-11-15T05:20:09.986Z,30.40
2022-11-15T05:22:56.647Z,32.73
2022-11-15T05:25:42.221Z,32.40
2022-11-15T05:28:28.225Z,35.30
2022-11-15T05:31:17.439Z,33.55
2022-11-15T05:34:06.392Z,35.63
2022-11-15T05:36:52.483Z,30.58
2022-11-15T05:39:38.272Z,34.40
2022-11-15T05:42:23.930Z,30.88
2022-11-15T05:45:10.544Z,28.95
2022-11-15T05:48:02.286Z,29.13
2022-11-15T05:50:49.000Z,30.30
2022-11-15T05:53:36.340Z,29.90
2022-11-15T05:56:22.216Z,31.70
2022-11-15T05:59:11.425Z,27.25
2022-11-15T06:01:57.649Z,30.88
2022-11-15T06:04:43.679Z,28.88
2022-11-15T06:07:32.088Z,30.05
2022-11-15T06:10:18.152Z,25.17
2022-11-15T06:13:06.107Z,33.47
2022-11-15T06:15:52.102Z,29.98
2022-11-15T06:18:39.035Z,30.02
2022-11-15T06:21:25.108Z,28.75
2022-11-15T06:24:10.585Z,26.77
2022-11-15T06:26:56.478Z,24.58
2022-11-15T06:29:41.895Z,25.60
2022-11-15T06:32:27.965Z,25.42
2022-11-15T06:35:15.598Z,28.55
2022-11-15T06:38:11.676Z,27.38
2022-11-15T06:41:09.381Z,24.27
2022-11-15T06:43:55.211Z,26.42
2022-11-15T06:46:41.010Z,25.40
2022-11-15T06:49:26.869Z,31.08
2022-11-15T06:52:12.711Z,28.42
2022-11-15T06:54:58.595Z,28.52
2022-11-15T06:57:53.319Z,27.88
2022-11-15T07:00:39.485Z,24.80
2022-11-15T07:03:25.313Z,26.55
2022-11-15T07:06:11.576Z,23.65
2022-11-15T07:08:57.359Z,26.35
2022-11-15T07:11:42.906Z,24.00
2022-11-15T07:14:28.467Z,26.15
2022-11-15T07:17:14.335Z,25.00
2022-11-15T07:20:01.410Z,25.95
2022-11-15T07:22:47.301Z,28.92
2022-11-15T07:25:33.378Z,27.08
2022-11-15T07:28:19.121Z,25.48
2022-11-15T07:31:08.570Z,23.42
2022-11-15T07:33:54.320Z,29.38
2022-11-15T07:36:40.030Z,23.20
2022-11-15T07:39:25.669Z,23.55
2022-11-15T07:42:43.996Z,22.75
2022-11-15T07:45:30.555Z,22.08
2022-11-15T07:48:16.000Z,22.45
2022-11-15T07:51:01.993Z,23.10
2022-11-15T07:53:47.729Z,24.80
2022-11-15T07:56:33.328Z,24.02
2022-11-15T07:59:20.316Z,23.65
2022-11-15T08:02:06.909Z,21.77
2022-11-15T08:04:52.577Z,20.80
2022-11-15T08:07:39.121Z,24.27
2022-11-15T08:10:26.031Z,22.50
2022-11-15T08:13:14.345Z,24.88
2022-11-15T08:16:06.331Z,20.33
2022-11-15T08:18:52.310Z,22.77
2022-11-15T08:21:38.296Z,24.23
2022-11-15T08:24:24.161Z,21.23
2022-11-15T08:27:18.643Z,19.02
2022-11-15T08:30:05.771Z,17.35
2022-11-15T08:32:53.493Z,20.17
2022-11-15T08:38:25.633Z,15.07
2022-11-15T08:41:25.893Z,16.80
2022-11-15T08:44:11.353Z,13.25
2022-11-15T08:46:56.918Z,14.38
2022-11-15T08:49:42.741Z,14.43
2022-11-15T08:52:28.732Z,15.93
2022-11-15T08:55:16.839Z,17.60
2022-11-15T08:58:03.082Z,16.10
2022-11-15T09:00:49.172Z,12.68
2022-11-15T09:03:34.658Z,14.05
2022-11-15T09:06:20.533Z,11.10
2022-11-15T09:09:06.280Z,11.85
2022-11-15T09:11:52.177Z,11.50
2022-11-15T09:14:38.326Z,11.18
2022-11-15T09:17:25.168Z,10.00
2022-11-15T09:20:11.646Z,11.73
2022-11-15T09:23:05.442Z,10.65
2022-11-15T09:25:51.988Z,11.30
2022-11-15T09:28:39.111Z,12.70
2022-11-15T09:31:25.474Z,10.32
2022-11-15T09:34:12.388Z,10.52
2022-11-15T09:36:57.928Z,12.07
2022-11-15T09:39:43.569Z,9.65
2022-11-15T09:43:26.749Z,9.95
2022-11-15T09:47:08.180Z,9.70
2022-11-15T09:50:29.914Z,7.35
2022-11-15T09:52:57.537Z,9.05
2022-11-15T09:55:54.601Z,7.90
2022-11-15T09:58:45.385Z,6.40
2022-11-15T10:01:58.356Z,6.47
2022-11-15T10:04:27.949Z,8.00
2022-11-15T10:07:45.810Z,5.40
2022-11-15T10:10:47.892Z,7.70
2022-11-15T10:13:41.204Z,5.00
2022-11-15T10:16:46.671Z,5.38
2022-11-15T10:19:31.691Z,5.43
2022-11-15T10:22:17.705Z,6.22
2022-11-15T10:24:48.881Z,6.75
2022-11-15T10:27:20.354Z,5.43
2022-11-15T10:29:51.415Z,4.90
2022-11-15T10:32:22.280Z,6.10
2022-11-15T10:34:51.504Z,6.72
2022-11-15T10:37:33.179Z,6.10
2022-11-15T10:40:25.135Z,5.75
2022-11-15T10:43:12.029Z,4.07
2022-11-15T10:45:39.541Z,4.00
2022-11-15T10:48:15.740Z,3.33
2022-11-15T10:50:47.436Z,3.55
2022-11-15T10:53:45.746Z,5.32
2022-11-15T10:56:16.759Z,5.32
2022-11-15T10:58:54.266Z,7.15
2022-11-15T11:01:30.690Z,4.65
2022-11-15T11:04:09.593Z,4.00
2022-11-15T11:06:50.559Z,4.07
2022-11-15T11:09:39.796Z,3.42
2022-11-15T11:12:13.073Z,3.38
2022-11-15T11:14:41.014Z,4.65
2022-11-15T11:18:02.948Z,17.05
2022-11-15T11:20:54.915Z,4.07
2022-11-15T11:23:55.103Z,4.53
2022-11-15T11:27:03.908Z,5.40
2022-11-15T11:30:12.334Z,5.63
2022-11-15T11:33:32.499Z,7.32
2022-11-15T11:36:53.644Z,4.63
2022-11-15T11:39:57.161Z,4.07
2022-11-15T11:42:45.795Z,6.93
2022-11-15T11:45:24.996Z,3.58
2022-11-15T11:48:24.530Z,3.40
2022-11-15T11:50:53.094Z,12.80
2022-11-15T11:53:42.242Z,4.88
2022-11-15T11:56:33.628Z,4.97
2022-11-15T11:59:35.606Z,4.45
2022-11-15T12:02:39.257Z,4.25
2022-11-15T12:05:41.294Z,5.90
2022-11-15T12:08:32.828Z,5.10
2022-11-15T12:11:29.605Z,5.75
2022-11-15T12:14:09.164Z,7.80
2022-11-15T12:16:43.796Z,4.78
2022-11-15T12:19:11.081Z,4.10
2022-11-15T12:22:01.334Z,7.15
2022-11-15T12:24:46.460Z,3.13
2022-11-15T12:27:42.021Z,4.88
2022-11-15T12:30:19.696Z,4.65
2022-11-15T12:33:02.266Z,4.97
2022-11-15T12:35:43.943Z,5.63
2022-11-15T12:38:54.606Z,3.33
2022-11-15T12:41:35.681Z,6.38
2022-11-15T12:44:05.384Z,2.65
2022-11-15T12:46:32.453Z,3.80
2022-11-15T12:49:28.629Z,3.80
2022-11-15T12:51:58.875Z,5.35
2022-11-15T12:54:25.914Z,4.72
2022-11-15T12:57:04.949Z,4.88
2022-11-15T13:00:13.510Z,5.80
2022-11-15T13:02:46.215Z,5.63
2022-11-15T13:05:19.512Z,3.90
2022-11-15T13:07:46.622Z,5.32
2022-11-15T13:10:13.855Z,4.80
2022-11-15T13:12:46.940Z,3.33
2022-11-15T13:15:14.011Z,4.57
2022-11-15T13:17:47.218Z,8.18
2022-11-15T13:20:17.205Z,5.72
2022-11-15T13:22:53.443Z,5.13
2022-11-15T13:25:56.266Z,8.40
2022-11-15T13:28:36.794Z,2.95
2022-11-15T13:31:38.887Z,4.32
2022-11-15T13:34:50.964Z,5.57
2022-11-15T13:37:21.899Z,6.07
2022-11-15T13:39:50.691Z,4.25
2022-11-15T13:42:21.397Z,3.13
2022-11-15T13:45:05.749Z,6.32
2022-11-15T13:47:33.232Z,8.20
2022-11-15T13:50:09.616Z,5.88
2022-11-15T13:52:43.993Z,3.80
2022-11-15T13:55:23.344Z,5.45
2022-11-15T13:57:58.355Z,8.18
2022-11-15T14:00:47.351Z,5.15
2022-11-15T14:03:28.904Z,4.63
2022-11-15T14:06:17.065Z,5.30
2022-11-15T14:09:30.002Z,4.40
2022-11-15T14:11:58.538Z,3.70
2022-11-15T14:14:30.065Z,5.30
2022-11-15T14:17:01.375Z,3.97
2022-11-15T14:19:28.449Z,5.07
2022-11-15T14:22:26.463Z,6.38
2022-11-15T14:28:25.085Z,4.38
2022-11-15T14:31:00.652Z,3.80
2022-11-15T14:33:40.538Z,4.05
2022-11-15T14:36:18.502Z,2.80
2022-11-15T14:38:47.116Z,7.72
2022-11-15T14:41:27.493Z,6.65
2022-11-15T14:43:55.121Z,6.47
2022-11-15T14:46:22.287Z,6.50
2022-11-15T14:48:49.508Z,6.45
2022-11-15T14:51:20.322Z,4.70
2022-11-15T14:53:49.032Z,7.32
2022-11-15T14:56:17.675Z,6.15
2022-11-15T14:58:44.951Z,3.35
2022-11-15T15:01:24.103Z,5.40
2022-11-15T15:03:57.995Z,5.78
2022-11-15T15:06:26.491Z,4.05
2022-11-15T15:08:53.755Z,3.13
2022-11-15T15:11:32.740Z,4.70
2022-11-15T15:14:02.081Z,6.20
2022-11-15T15:16:30.382Z,7.18
2022-11-15T15:18:57.576Z,4.28
2022-11-15T15:21:33.826Z,7.78
2022-11-15T15:24:04.534Z,5.18
2022-11-15T15:26:36.059Z,4.00
2022-11-15T15:29:03.230Z,7.88
2022-11-15T15:31:31.477Z,4.75
2022-11-15T15:33:58.624Z,4.25
2022-11-15T15:36:25.777Z,5.35
2022-11-15T15:38:53.502Z,3.60
2022-11-15T15:41:20.687Z,2.80
2022-11-15T15:43:48.576Z,7.90
2022-11-15T15:46:19.206Z,6.70
2022-11-15T15:48:47.400Z,8.18
2022-11-15T15:51:20.107Z,3.88
2022-11-15T15:53:49.612Z,4.07
2022-11-15T15:56:16.774Z,7.50
2022-11-15T15:58:44.222Z,6.65
2022-11-15T16:01:11.410Z,4.07
2022-11-15T16:03:38.571Z,4.90
2022-11-15T16:06:06.287Z,4.68
2022-11-15T16:08:47.642Z,4.80
2022-11-15T16:11:20.642Z,3.40
2022-11-15T16:13:47.785Z,6.63
2022-11-15T16:16:15.432Z,7.13
2022-11-15T16:18:42.612Z,3.40
2022-11-15T16:21:10.289Z,4.35
2022-11-15T16:23:37.502Z,5.05
2022-11-15T16:26:25.927Z,8.20
2022-11-15T16:28:53.798Z,5.05
2022-11-15T16:31:24.239Z,6.35
2022-11-15T16:33:51.384Z,5.53
2022-11-15T16:36:30.685Z,6.47
2022-11-15T16:39:00.455Z,5.07
2022-11-15T16:41:27.704Z,7.80
2022-11-15T16:43:55.025Z,6.22
2022-11-15T16:46:28.504Z,7.32
2022-11-15T16:48:56.229Z,7.55
2022-11-15T16:51:24.202Z,4.40
2022-11-15T16:53:51.492Z,5.18
2022-11-15T16:56:30.647Z,8.32
2022-11-15T16:59:00.652Z,4.38
2022-11-15T17:01:35.612Z,5.70
2022-11-15T17:04:12.550Z,5.90
2022-11-15T17:06:43.085Z,4.22
2022-11-15T17:09:26.250Z,5.40
2022-11-15T17:11:54.203Z,4.07
2022-11-15T17:14:21.664Z,5.47
2022-11-15T17:16:48.911Z,7.43
2022-11-15T17:19:20.283Z,6.25
2022-11-15T17:21:51.733Z,6.90
2022-11-15T17:24:20.935Z,4.97
2022-11-15T17:26:48.345Z,5.05
2022-11-15T17:29:15.564Z,5.13
2022-11-15T17:31:42.725Z,5.72
2022-11-15T17:34:09.908Z,4.88
2022-11-15T17:36:37.068Z,4.20
2022-11-15T17:39:05.406Z,7.72
2022-11-15T17:41:32.724Z,5.15
2022-11-15T17:44:03.001Z,5.05
2022-11-15T17:46:30.955Z,8.50
2022-11-15T17:48:58.598Z,5.65
2022-11-15T17:51:26.121Z,7.97
2022-11-15T17:53:53.383Z,7.05
2022-11-15T17:56:24.329Z,6.97
2022-11-15T17:58:59.273Z,8.13
2022-11-15T18:01:33.832Z,6.22
2022-11-15T18:04:07.477Z,6.20
2022-11-15T18:06:36.678Z,6.28
2022-11-15T18:09:05.677Z,7.03
2022-11-15T18:11:41.346Z,5.85
2022-11-15T18:14:14.567Z,5.85
2022-11-15T18:16:42.588Z,6.50
2022-11-15T18:19:13.992Z,5.72
2022-11-15T18:21:59.158Z,7.78
2022-11-15T18:24:38.400Z,7.05
2022-11-15T18:27:09.123Z,6.93
2022-11-15T18:29:38.010Z,6.80
2022-11-15T18:32:11.844Z,7.28
2022-11-15T18:34:39.273Z,7.00
2022-11-15T18:37:06.877Z,8.23
2022-11-15T18:39:34.523Z,14.23
2022-11-15T18:42:01.956Z,6.88
2022-11-15T18:44:30.311Z,6.10
2022-11-15T18:46:58.320Z,8.38
2022-11-15T18:49:25.864Z,7.03
2022-11-15T18:51:53.086Z,6.40
2022-11-15T18:54:20.254Z,7.57
2022-11-15T18:56:47.549Z,8.07
2022-11-15T18:59:16.402Z,9.57
2022-11-15T19:01:48.212Z,6.25
2022-11-15T19:04:19.975Z,7.50
2022-11-15T19:06:50.320Z,7.45
2022-11-15T19:09:19.871Z,8.65
2022-11-15T19:11:51.537Z,8.25
2022-11-15T19:14:24.200Z,8.10
2022-11-15T19:16:55.172Z,8.13
2022-11-15T19:19:27.760Z,8.88
2022-11-15T19:21:57.475Z,6.45
2022-11-15T19:24:27.204Z,8.07
2022-11-15T19:26:54.944Z,7.03
2022-11-15T19:29:22.157Z,6.75
2022-11-15T19:31:49.379Z,7.32
2022-11-15T19:34:17.848Z,9.05
2022-11-15T19:36:45.546Z,7.65
2022-11-15T19:39:17.892Z,7.63
2022-11-15T19:41:46.660Z,9.07
2022-11-15T19:44:14.790Z,10.20
2022-11-15T19:46:42.408Z,7.68
2022-11-15T19:49:11.267Z,7.40
2022-11-15T19:51:47.169Z,7.97
2022-11-15T19:54:16.896Z,8.50
2022-11-15T19:56:44.298Z,9.20
2022-11-15T19:59:11.873Z,7.82
2022-11-15T20:01:39.665Z,11.50
2022-11-15T20:04:10.041Z,9.27
2022-11-15T20:06:42.437Z,11.15
2022-11-15T20:09:16.031Z,8.00
2022-11-15T20:11:43.913Z,9.00
2022-11-15T20:14:13.036Z,8.90
2022-11-15T20:16:41.202Z,9.50
2022-11-15T20:19:12.267Z,9.55
2022-11-15T20:21:39.605Z,10.43
2022-11-15T20:24:07.658Z,11.20
2022-11-15T20:26:35.625Z,11.13
2022-11-15T20:29:03.508Z,11.38
2022-11-15T20:31:31.838Z,10.25
2022-11-15T20:33:59.458Z,11.88
2022-11-15T20:36:26.793Z,10.27
2022-11-15T20:39:00.838Z,11.30
2022-11-15T20:41:28.313Z,10.63
2022-11-15T20:43:56.233Z,20.63
2022-11-15T20:46:23.494Z,10.05
2022-11-15T20:48:50.629Z,10.32
2022-11-15T20:51:19.368Z,10.23
2022-11-15T20:53:48.189Z,10.60
2022-11-15T20:56:22.170Z,12.27
2022-11-15T20:58:50.946Z,10.07
2022-11-15T21:01:27.173Z,10.60
2022-11-15T21:03:56.155Z,13.15
2022-11-15T21:06:25.849Z,14.25
2022-11-15T21:09:13.492Z,12.70
2022-11-15T21:14:27.244Z,12.65
2022-11-15T21:16:54.550Z,11.23
2022-11-15T21:19:27.237Z,9.57
2022-11-15T21:21:58.802Z,9.52
2022-11-15T21:24:26.509Z,10.55
2022-11-15T21:26:55.508Z,10.68
2022-11-15T21:29:23.323Z,14.68
2022-11-15T21:31:53.223Z,12.15
2022-11-15T21:34:21.154Z,11.93
2022-11-15T21:36:48.337Z,9.45
2022-11-15T21:39:15.643Z,11.75
2022-11-15T21:41:42.937Z,8.85
2022-11-15T21:44:10.195Z,7.40
2022-11-15T21:46:37.411Z,7.88
2022-11-15T21:49:06.635Z,9.25
2022-11-15T21:51:34.434Z,7.95
2022-11-15T21:54:02.026Z,7.57
2022-11-15T21:56:30.494Z,7.80
2022-11-15T21:58:58.034Z,8.18
2022-11-15T22:01:46.807Z,8.90
2022-11-15T22:04:15.131Z,7.60
2022-11-15T22:06:43.462Z,8.10
2022-11-15T22:09:10.916Z,7.82
2022-11-15T22:11:38.172Z,7.93
2022-11-15T22:14:05.401Z,8.70
2022-11-15T22:16:33.315Z,8.10
2022-11-15T22:19:00.561Z,9.05
2022-11-15T22:21:27.831Z,9.27
2022-11-15T22:23:55.011Z,8.73
2022-11-15T22:26:24.018Z,9.20
2022-11-15T22:28:51.913Z,7.95
2022-11-15T22:31:19.334Z,9.10
2022-11-15T22:33:46.867Z,8.68
2022-11-15T22:36:14.141Z,8.00
2022-11-15T22:38:41.503Z,8.98
2022-11-15T22:41:08.970Z,8.80
2022-11-15T22:43:36.230Z,9.40
2022-11-15T22:46:05.086Z,9.13
2022-11-15T22:48:37.587Z,9.00
2022-11-15T22:51:06.359Z,12.15
2022-11-15T22:53:34.549Z,9.77
2022-11-15T22:56:06.019Z,8.68
2022-11-15T22:58:34.644Z,9.18
2022-11-15T23:01:05.658Z,8.45
2022-11-15T23:03:34.489Z,8.98
2022-11-15T23:06:09.145Z,9.98
2022-11-15T23:08:36.649Z,10.57
2022-11-15T23:11:23.655Z,9.73
2022-11-15T23:13:52.827Z,13.80
2022-11-15T23:16:25.576Z,9.50
2022-11-15T23:18:59.628Z,12.00
2022-11-15T23:21:51.472Z,9.57
2022-11-15T23:24:19.131Z,9.35
2022-11-15T23:26:51.269Z,9.77
2022-11-15T23:29:22.910Z,11.65
2022-11-15T23:32:08.747Z,10.40
2022-11-15T23:34:40.526Z,11.13
2022-11-15T23:37:11.996Z,10.20
2022-11-15T23:39:39.705Z,10.30
2022-11-15T23:42:09.303Z,10.38
2022-11-15T23:44:37.168Z,10.48
2022-11-15T23:47:04.791Z,10.77
2022-11-15T23:49:31.963Z,11.02
2022-11-15T23:51:59.100Z,10.30
2022-11-15T23:54:26.314Z,10.25
2022-11-15T23:56:53.488Z,10.85
2022-11-15T23:59:20.672Z,10.20
